Time;durP1;ratioP1;P1;durP2;ratioP2;P2;SDS_P1;SDS_P2;PMS_P1;PMS_P2;Temp;Humidity;BMP_temperature;BMP_pressure;BME280_temperature;BME280_humidity;BME280_pressure;Samples;Min_cycle;Max_cycle;Signal;HPM_P1;HPM_P2
2021/07/29 00:00:45;;;;;;;;;;;17.10;1.00;;;;;;4971849;28;19930;-66
2021/07/29 00:03:10;;;;;;;;;;;17.10;1.00;;;;;;4972349;28;20380;-66
2021/07/29 00:05:36;;;;;;;;;;;17.10;1.00;;;;;;4972219;28;20005;-66
2021/07/29 00:08:02;;;;;;;;;;;17.20;1.00;;;;;;4971568;28;19964;-66
2021/07/29 00:10:28;;;;;;;;;;;17.20;1.00;;;;;;4971885;28;19910;-66
2021/07/29 00:12:54;;;;;;;;;;;17.20;1.00;;;;;;4972184;28;20272;-66
2021/07/29 00:15:19;;;;;;;;;;;17.20;1.00;;;;;;4971740;28;19910;-66
2021/07/29 00:20:12;;;;;;;;;;;17.30;1.00;;;;;;4972256;28;19910;-66
2021/07/29 00:22:38;;;;;;;;;;;17.20;1.00;;;;;;4971080;28;19910;-66
2021/07/29 00:25:07;;;;;;;;;;;17.20;1.00;;;;;;4972138;28;20393;-66
2021/07/29 00:27:35;;;;;;;;;;;17.20;1.00;;;;;;4971456;28;19911;-66
2021/07/29 00:30:00;;;;;;;;;;;17.20;1.00;;;;;;4971698;28;19918;-66
2021/07/29 00:32:26;;;;;;;;;;;17.20;1.00;;;;;;4972277;28;19933;-66
2021/07/29 00:34:51;;;;;;;;;;;17.20;1.00;;;;;;4974335;28;19910;-66
2021/07/29 00:37:17;;;;;;;;;;;17.20;1.00;;;;;;4975408;28;19961;-66
2021/07/29 00:39:42;;;;;;;;;;;17.20;1.00;;;;;;4975441;28;19918;-65
2021/07/29 00:42:09;;;;;;;;;;;17.20;1.00;;;;;;4975822;28;20346;-66
2021/07/29 00:44:34;;;;;;;;;;;17.20;1.00;;;;;;4975181;28;19918;-66
2021/07/29 00:47:01;;;;;;;;;;;17.20;1.00;;;;;;4975677;28;20174;-66
2021/07/29 00:49:26;;;;;;;;;;;17.20;1.00;;;;;;4975051;28;19916;-66
2021/07/29 00:51:52;;;;;;;;;;;17.30;1.00;;;;;;4975592;28;19910;-66
2021/07/29 00:54:17;;;;;;;;;;;17.30;1.00;;;;;;4976047;28;19910;-65
2021/07/29 00:56:44;;;;;;;;;;;17.30;1.00;;;;;;4975429;28;20390;-65
2021/07/29 00:59:09;;;;;;;;;;;17.30;1.00;;;;;;4974611;28;19915;-66
2021/07/29 01:01:35;;;;;;;;;;;17.30;1.00;;;;;;4975051;28;20334;-65
2021/07/29 01:04:00;;;;;;;;;;;17.30;1.00;;;;;;4975503;28;19910;-66
2021/07/29 01:06:27;;;;;;;;;;;17.30;1.00;;;;;;4975406;28;19910;-66
2021/07/29 01:09:04;;;;;;;;;;;17.30;1.00;;;;;;4974617;28;20006;-66
2021/07/29 01:11:30;;;;;;;;;;;17.30;1.00;;;;;;4974998;28;19910;-65
2021/07/29 01:13:55;;;;;;;;;;;17.30;1.00;;;;;;4975186;28;19933;-66
2021/07/29 01:16:21;;;;;;;;;;;17.20;1.00;;;;;;4957482;28;20319;-65
2021/07/29 01:18:46;;;;;;;;;;;17.20;1.00;;;;;;4974476;28;19910;-65
2021/07/29 01:21:12;;;;;;;;;;;17.20;1.00;;;;;;4974699;28;19914;-66
2021/07/29 01:23:37;;;;;;;;;;;17.10;1.00;;;;;;4974489;28;20004;-66
2021/07/29 01:26:03;;;;;;;;;;;17.10;1.00;;;;;;4974900;28;20078;-66
2021/07/29 01:28:28;;;;;;;;;;;17.00;1.00;;;;;;4974307;28;19918;-66
2021/07/29 01:30:54;;;;;;;;;;;16.90;1.00;;;;;;4974408;28;19918;-65
2021/07/29 01:33:19;;;;;;;;;;;16.90;1.00;;;;;;4974650;28;20001;-66
2021/07/29 01:35:45;;;;;;;;;;;16.90;1.00;;;;;;4974491;28;19910;-65
2021/07/29 01:38:10;;;;;;;;;;;16.90;1.00;;;;;;4974173;28;19910;-65
2021/07/29 01:40:35;;;;;;;;;;;16.90;1.00;;;;;;4974420;28;19910;-66
2021/07/29 01:43:01;;;;;;;;;;;16.90;1.00;;;;;;4974679;28;20363;-66
2021/07/29 01:45:26;;;;;;;;;;;16.80;1.00;;;;;;4973679;28;19910;-66
2021/07/29 01:47:52;;;;;;;;;;;16.80;1.00;;;;;;4974021;28;20371;-65
2021/07/29 01:50:17;;;;;;;;;;;16.70;1.00;;;;;;4974670;28;19910;-66
2021/07/29 01:52:43;;;;;;;;;;;16.70;1.00;;;;;;4974706;28;20714;-66
2021/07/29 01:55:09;;;;;;;;;;;16.60;1.00;;;;;;4974337;28;19959;-66
2021/07/29 01:57:35;;;;;;;;;;;16.60;1.00;;;;;;4973635;28;19965;-66
2021/07/29 02:00:00;;;;;;;;;;;16.60;1.00;;;;;;4973989;28;20005;-66
2021/07/29 02:02:26;;;;;;;;;;;16.50;1.00;;;;;;4974423;28;19997;-66
2021/07/29 02:04:51;;;;;;;;;;;16.50;1.00;;;;;;4974576;28;19933;-66
2021/07/29 02:07:17;;;;;;;;;;;16.40;1.00;;;;;;4973793;28;19965;-66
2021/07/29 02:09:42;;;;;;;;;;;16.40;1.00;;;;;;4973661;28;20131;-66
2021/07/29 02:12:08;;;;;;;;;;;16.40;1.00;;;;;;4974231;28;19980;-66
2021/07/29 02:14:33;;;;;;;;;;;16.40;1.00;;;;;;4973901;28;19918;-66
2021/07/29 02:16:59;;;;;;;;;;;16.30;1.00;;;;;;4956676;28;19914;-66
2021/07/29 02:19:25;;;;;;;;;;;16.30;1.00;;;;;;4973217;28;20403;-66
2021/07/29 02:21:51;;;;;;;;;;;16.30;1.00;;;;;;4973527;28;19961;-66
2021/07/29 02:24:16;;;;;;;;;;;16.30;1.00;;;;;;4973852;28;19911;-66
2021/07/29 02:26:42;;;;;;;;;;;16.30;1.00;;;;;;4973959;28;19917;-66
2021/07/29 02:29:07;;;;;;;;;;;16.30;1.00;;;;;;4973190;28;20013;-66
2021/07/29 02:31:33;;;;;;;;;;;16.30;1.00;;;;;;4973280;28;20282;-66
2021/07/29 02:33:58;;;;;;;;;;;16.20;1.00;;;;;;4973789;28;20319;-66
2021/07/29 02:36:24;;;;;;;;;;;16.20;1.00;;;;;;4973393;28;19997;-66
2021/07/29 02:38:50;;;;;;;;;;;16.10;1.00;;;;;;4973023;28;19952;-66
2021/07/29 02:41:15;;;;;;;;;;;16.00;1.00;;;;;;4973663;28;19910;-66
2021/07/29 02:43:41;;;;;;;;;;;16.00;1.00;;;;;;4973610;28;19957;-66
2021/07/29 02:46:06;;;;;;;;;;;15.90;1.00;;;;;;4973192;28;19914;-65
2021/07/29 02:48:31;;;;;;;;;;;15.80;1.00;;;;;;4973012;28;19914;-65
2021/07/29 02:50:57;;;;;;;;;;;15.70;1.00;;;;;;4973506;28;20378;-66
2021/07/29 02:53:24;;;;;;;;;;;15.60;1.00;;;;;;4973473;28;19957;-66
2021/07/29 02:55:50;;;;;;;;;;;15.60;1.00;;;;;;4972978;28;19964;-66
2021/07/29 02:58:15;;;;;;;;;;;15.60;1.00;;;;;;4972163;28;19910;-66
2021/07/29 03:00:41;;;;;;;;;;;15.50;1.00;;;;;;4972979;28;19910;-66
2021/07/29 03:03:06;;;;;;;;;;;15.40;1.00;;;;;;4973312;28;19914;-66
2021/07/29 03:05:32;;;;;;;;;;;15.40;1.00;;;;;;4973225;28;20005;-66
2021/07/29 03:07:57;;;;;;;;;;;15.40;1.00;;;;;;4972047;28;19921;-66
2021/07/29 03:10:23;;;;;;;;;;;15.40;1.00;;;;;;4973106;28;20302;-66
2021/07/29 03:12:48;;;;;;;;;;;15.40;1.00;;;;;;4973143;28;19910;-66
2021/07/29 03:15:14;;;;;;;;;;;15.40;1.00;;;;;;4972692;28;20244;-66
2021/07/29 03:17:39;;;;;;;;;;;15.30;1.00;;;;;;4972377;28;19914;-66
2021/07/29 03:20:05;;;;;;;;;;;15.30;1.00;;;;;;4972648;28;19910;-66
2021/07/29 03:22:30;;;;;;;;;;;15.30;1.00;;;;;;4972153;28;19910;-66
2021/07/29 03:24:56;;;;;;;;;;;15.30;1.00;;;;;;4972967;28;19914;-66
2021/07/29 03:27:21;;;;;;;;;;;15.30;1.00;;;;;;4972486;28;19914;-66
2021/07/29 03:29:47;;;;;;;;;;;15.30;1.00;;;;;;4972464;28;19922;-66
2021/07/29 03:32:12;;;;;;;;;;;15.30;1.00;;;;;;4972480;28;20383;-66
2021/07/29 03:34:38;;;;;;;;;;;15.40;1.00;;;;;;4972667;28;19914;-66
2021/07/29 03:37:03;;;;;;;;;;;15.40;1.00;;;;;;4972601;28;19914;-66
2021/07/29 03:39:29;;;;;;;;;;;15.40;1.00;;;;;;4972228;28;19910;-66
2021/07/29 03:41:55;;;;;;;;;;;15.40;1.00;;;;;;4973097;28;19910;-66
2021/07/29 03:44:20;;;;;;;;;;;15.50;1.00;;;;;;4972538;28;20209;-66
2021/07/29 03:46:46;;;;;;;;;;;15.50;1.00;;;;;;4971941;28;19917;-66
2021/07/29 03:49:11;;;;;;;;;;;15.50;1.00;;;;;;4971987;28;19917;-66
2021/07/29 03:51:37;;;;;;;;;;;15.60;1.00;;;;;;4972409;28;19910;-66
2021/07/29 03:54:02;;;;;;;;;;;15.50;1.00;;;;;;4972406;28;20376;-66
2021/07/29 03:56:28;;;;;;;;;;;15.50;1.00;;;;;;4972264;28;19914;-66
2021/07/29 03:58:53;;;;;;;;;;;15.50;1.00;;;;;;4971916;28;19921;-66
2021/07/29 04:01:19;;;;;;;;;;;15.50;1.00;;;;;;4971905;28;20009;-66
2021/07/29 04:03:46;;;;;;;;;;;15.60;1.00;;;;;;4972851;28;20374;-66
2021/07/29 04:06:14;;;;;;;;;;;15.60;1.00;;;;;;4972323;28;20383;-66
2021/07/29 04:08:40;;;;;;;;;;;15.70;1.00;;;;;;4971686;28;19921;-65
2021/07/29 04:11:06;;;;;;;;;;;15.70;1.00;;;;;;4972146;28;19911;-66
2021/07/29 04:13:31;;;;;;;;;;;15.70;1.00;;;;;;4972442;28;19910;-66
2021/07/29 04:16:03;;;;;;;;;;;15.80;1.00;;;;;;4971711;28;19910;-66
2021/07/29 04:18:31;;;;;;;;;;;15.80;1.00;;;;;;4971831;28;20201;-66
2021/07/29 04:20:57;;;;;;;;;;;15.80;1.00;;;;;;4971914;28;20290;-66
2021/07/29 04:23:23;;;;;;;;;;;15.80;1.00;;;;;;4972132;28;19910;-66
2021/07/29 04:25:48;;;;;;;;;;;15.80;1.00;;;;;;4971910;28;20393;-65
2021/07/29 04:28:14;;;;;;;;;;;15.90;1.00;;;;;;4972023;28;19922;-66
2021/07/29 04:30:39;;;;;;;;;;;15.90;1.00;;;;;;4971182;28;19914;-65
2021/07/29 04:33:08;;;;;;;;;;;15.90;1.00;;;;;;4971907;28;20048;-65
2021/07/29 04:35:34;;;;;;;;;;;16.00;1.00;;;;;;4971602;28;20377;-65
2021/07/29 04:37:59;;;;;;;;;;;16.10;1.00;;;;;;4971343;28;20118;-65
2021/07/29 04:40:25;;;;;;;;;;;16.20;1.00;;;;;;4971657;28;19910;-67
2021/07/29 04:42:50;;;;;;;;;;;16.30;1.00;;;;;;4971638;28;19917;-65
2021/07/29 04:45:16;;;;;;;;;;;16.40;1.00;;;;;;4971340;28;19965;-65
2021/07/29 04:47:41;;;;;;;;;;;16.50;1.00;;;;;;4971568;28;20359;-65
2021/07/29 04:50:07;;;;;;;;;;;16.60;1.00;;;;;;4971633;28;20274;-64
2021/07/29 04:52:33;;;;;;;;;;;16.70;1.00;;;;;;4971871;28;19910;-64
2021/07/29 04:54:59;;;;;;;;;;;16.80;1.00;;;;;;4971715;28;20251;-65
2021/07/29 04:57:24;;;;;;;;;;;17.00;1.00;;;;;;4971057;28;19921;-65
2021/07/29 04:59:50;;;;;;;;;;;17.30;1.00;;;;;;4971238;28;19914;-65
2021/07/29 05:02:17;;;;;;;;;;;17.70;1.00;;;;;;4971659;28;19915;-65
2021/07/29 05:04:42;;;;;;;;;;;18.10;1.00;;;;;;4971419;28;19910;-64
2021/07/29 05:07:10;;;;;;;;;;;18.70;1.00;;;;;;4972023;28;19925;-64
2021/07/29 05:09:36;;;;;;;;;;;19.10;1.00;;;;;;4970743;28;19964;-64
2021/07/29 05:12:01;;;;;;;;;;;19.40;1.00;;;;;;4971501;28;19914;-64
2021/07/29 05:14:27;;;;;;;;;;;19.70;1.00;;;;;;4971411;28;20507;-64
2021/07/29 05:16:52;;;;;;;;;;;19.80;1.00;;;;;;4971204;28;20371;-65
2021/07/29 05:19:18;;;;;;;;;;;20.20;99.90;;;;;;4971058;28;19910;-64
2021/07/29 05:21:43;;;;;;;;;;;20.70;99.90;;;;;;4974916;28;19987;-65
2021/07/29 05:24:09;;;;;;;;;;;21.40;99.90;;;;;;4975260;28;19917;-64
2021/07/29 05:26:35;;;;;;;;;;;22.30;99.90;;;;;;4974892;28;19937;-65
2021/07/29 05:29:00;;;;;;;;;;;22.80;99.90;;;;;;4974452;28;19918;-65
2021/07/29 05:31:26;;;;;;;;;;;23.00;1.00;;;;;;4974321;28;19936;-65
2021/07/29 05:33:51;;;;;;;;;;;23.10;1.00;;;;;;4974725;28;19920;-65
2021/07/29 05:36:17;;;;;;;;;;;23.10;99.90;;;;;;4974686;28;19918;-65
2021/07/29 05:38:42;;;;;;;;;;;23.30;99.90;;;;;;4973998;28;19968;-68
2021/07/29 05:41:08;;;;;;;;;;;23.40;99.90;;;;;;4956799;28;20025;-66
2021/07/29 05:43:35;;;;;;;;;;;23.50;99.90;;;;;;4974714;28;20398;-65
2021/07/29 05:46:00;;;;;;;;;;;23.70;99.90;;;;;;4974214;28;19914;-66
2021/07/29 05:48:26;;;;;;;;;;;23.90;56.40;;;;;;4973951;28;20296;-66
2021/07/29 05:50:53;;;;;;;;;;;23.90;1.00;;;;;;4974535;28;19910;-65
2021/07/29 05:53:18;;;;;;;;;;;23.60;1.00;;;;;;4974345;28;19942;-66
2021/07/29 05:55:44;;;;;;;;;;;23.40;17.70;;;;;;4974230;28;19988;-66
2021/07/29 05:58:09;;;;;;;;;;;23.30;99.90;;;;;;4973755;28;19917;-66
2021/07/29 06:00:35;;;;;;;;;;;24.10;1.30;;;;;;4973868;28;20001;-66
2021/07/29 06:03:00;;;;;;;;;;;24.70;1.00;;;;;;4974376;28;19981;-66
2021/07/29 06:05:26;;;;;;;;;;;25.40;1.00;;;;;;4973970;28;19910;-67
2021/07/29 06:07:51;;;;;;;;;;;26.30;1.00;;;;;;4973780;28;19918;-67
2021/07/29 06:10:17;;;;;;;;;;;26.90;1.00;;;;;;4956766;28;20264;-66
2021/07/29 06:12:42;;;;;;;;;;;27.00;1.00;;;;;;4974250;28;19910;-66
2021/07/29 06:15:08;;;;;;;;;;;26.70;1.00;;;;;;4973563;28;20023;-66
2021/07/29 06:17:35;;;;;;;;;;;26.80;1.00;;;;;;4972998;28;19914;-66
2021/07/29 06:20:05;;;;;;;;;;;26.90;1.00;;;;;;4974177;28;20073;-66
2021/07/29 06:22:31;;;;;;;;;;;26.70;1.00;;;;;;4956405;28;19997;-66
2021/07/29 06:24:57;;;;;;;;;;;26.60;1.00;;;;;;4974144;28;20235;-65
2021/07/29 06:27:22;;;;;;;;;;;26.70;1.00;;;;;;4973014;28;20013;-66
2021/07/29 06:29:48;;;;;;;;;;;27.80;99.90;;;;;;4973290;28;19929;-65
2021/07/29 06:32:14;;;;;;;;;;;29.10;99.90;;;;;;4972485;28;19921;-65
2021/07/29 06:34:40;;;;;;;;;;;30.10;99.90;;;;;;4973763;28;20009;-65
2021/07/29 06:37:05;;;;;;;;;;;30.80;99.90;;;;;;4973799;28;20009;-66
2021/07/29 06:39:31;;;;;;;;;;;31.80;99.90;;;;;;4972783;28;20343;-66
2021/07/29 06:41:56;;;;;;;;;;;32.50;99.90;;;;;;4973311;28;19910;-66
2021/07/29 06:44:22;;;;;;;;;;;33.00;99.90;;;;;;4973351;28;19916;-66
2021/07/29 06:46:47;;;;;;;;;;;33.10;99.90;;;;;;4972890;28;19915;-66
2021/07/29 06:49:13;;;;;;;;;;;33.60;99.90;;;;;;4973117;28;19918;-66
2021/07/29 06:51:38;;;;;;;;;;;33.80;99.90;;;;;;4973081;28;19920;-66
2021/07/29 06:54:04;;;;;;;;;;;33.80;99.90;;;;;;4973546;28;19925;-66
2021/07/29 06:56:31;;;;;;;;;;;33.40;99.90;;;;;;4973095;28;20462;-66
2021/07/29 06:58:56;;;;;;;;;;;34.30;99.90;;;;;;4972768;28;19910;-66
2021/07/29 07:01:22;;;;;;;;;;;35.20;99.90;;;;;;4972876;28;19925;-66
2021/07/29 07:03:48;;;;;;;;;;;36.00;99.90;;;;;;4973094;28;19910;-66
2021/07/29 07:06:13;;;;;;;;;;;36.30;99.90;;;;;;4973150;28;20438;-66
2021/07/29 07:08:39;;;;;;;;;;;36.80;99.90;;;;;;4972617;28;19920;-66
2021/07/29 07:11:06;;;;;;;;;;;37.30;99.90;;;;;;4972922;28;20304;-66
2021/07/29 07:13:32;;;;;;;;;;;37.80;99.90;;;;;;4972527;28;19993;-65
2021/07/29 07:15:57;;;;;;;;;;;38.20;99.90;;;;;;4972831;28;20014;-66
2021/07/29 07:18:23;;;;;;;;;;;38.40;99.90;;;;;;4972202;28;20334;-66
2021/07/29 07:20:48;;;;;;;;;;;38.40;99.90;;;;;;4972788;28;20419;-66
2021/07/29 07:23:14;;;;;;;;;;;38.60;99.90;;;;;;4972622;28;19960;-66
2021/07/29 07:25:39;;;;;;;;;;;38.80;99.90;;;;;;4972346;28;20005;-66
2021/07/29 07:28:05;;;;;;;;;;;39.10;99.90;;;;;;4971756;28;19921;-66
2021/07/29 07:30:34;;;;;;;;;;;39.60;99.90;;;;;;4972706;28;19949;-66
2021/07/29 07:33:01;;;;;;;;;;;39.10;99.90;;;;;;4972473;28;19929;-65
2021/07/29 07:35:26;;;;;;;;;;;38.80;99.90;;;;;;4972499;28;19946;-66
2021/07/29 07:37:52;;;;;;;;;;;38.30;99.90;;;;;;4971371;28;19976;-65
2021/07/29 07:40:18;;;;;;;;;;;38.40;99.90;;;;;;4972330;28;19914;-66
2021/07/29 07:42:43;;;;;;;;;;;38.70;99.90;;;;;;4972085;28;19936;-65
2021/07/29 07:45:09;;;;;;;;;;;39.50;99.90;;;;;;4971986;28;20010;-66
2021/07/29 07:47:35;;;;;;;;;;;40.50;99.90;;;;;;4971908;28;19925;-66
2021/07/29 07:50:01;;;;;;;;;;;41.00;99.90;;;;;;4972381;28;19957;-66
2021/07/29 07:52:27;;;;;;;;;;;41.40;99.90;;;;;;4972339;28;19918;-66
2021/07/29 07:54:52;;;;;;;;;;;41.60;99.90;;;;;;4972131;28;20073;-68
2021/07/29 07:57:18;;;;;;;;;;;41.10;99.90;;;;;;4971742;28;19937;-65
2021/07/29 07:59:43;;;;;;;;;;;40.80;99.90;;;;;;4971386;28;20028;-66
2021/07/29 08:02:09;;;;;;;;;;;41.10;99.90;;;;;;4972185;28;20248;-66
2021/07/29 08:04:34;;;;;;;;;;;41.30;99.90;;;;;;4972524;28;19990;-66
2021/07/29 08:07:00;;;;;;;;;;;41.20;99.90;;;;;;4972152;28;20263;-66
2021/07/29 08:09:26;;;;;;;;;;;41.50;99.90;;;;;;4971590;28;19911;-66
2021/07/29 08:11:52;;;;;;;;;;;41.60;99.90;;;;;;4972053;28;20386;-66
2021/07/29 08:14:17;;;;;;;;;;;41.20;99.90;;;;;;4971633;28;20367;-66
2021/07/29 08:16:43;;;;;;;;;;;41.40;99.90;;;;;;4971389;28;19914;-66
2021/07/29 08:19:08;;;;;;;;;;;41.30;99.90;;;;;;4971486;28;19910;-66
2021/07/29 08:21:34;;;;;;;;;;;41.30;99.80;;;;;;4971630;28;19910;-66
2021/07/29 08:24:00;;;;;;;;;;;41.80;98.30;;;;;;4972029;28;20327;-66
2021/07/29 08:26:25;;;;;;;;;;;41.10;95.40;;;;;;4971567;28;19910;-66
2021/07/29 08:28:54;;;;;;;;;;;39.70;92.90;;;;;;4971101;28;19977;-66
2021/07/29 08:31:20;;;;;;;;;;;39.10;92.10;;;;;;4971604;28;20374;-66
2021/07/29 08:33:46;;;;;;;;;;;37.80;88.20;;;;;;4971910;28;19974;-66
2021/07/29 08:36:18;;;;;;;;;;;36.00;85.60;;;;;;4971707;28;19918;-65
2021/07/29 08:38:44;;;;;;;;;;;35.30;86.70;;;;;;4971086;28;19922;-66
2021/07/29 08:41:11;;;;;;;;;;;36.60;90.10;;;;;;4971410;28;19911;-66
2021/07/29 08:43:37;;;;;;;;;;;38.60;91.80;;;;;;4971592;28;19911;-66
2021/07/29 08:46:07;;;;;;;;;;;39.10;91.10;;;;;;4971513;28;19921;-66
2021/07/29 08:48:33;;;;;;;;;;;38.20;87.70;;;;;;4971122;28;19910;-66
2021/07/29 08:50:59;;;;;;;;;;;36.30;82.30;;;;;;4954353;28;19964;-66
2021/07/29 08:53:25;;;;;;;;;;;35.20;82.40;;;;;;4971743;28;20009;-66
2021/07/29 08:55:51;;;;;;;;;;;35.90;86.00;;;;;;4973851;28;20298;-65
2021/07/29 08:58:17;;;;;;;;;;;35.70;84.60;;;;;;4974610;28;19910;-65
2021/07/29 09:00:58;;;;;;;;;;;35.10;85.10;;;;;;4974393;28;20252;-65
2021/07/29 09:03:26;;;;;;;;;;;34.10;84.20;;;;;;4975615;28;19914;-65
2021/07/29 09:05:59;;;;;;;;;;;33.60;87.70;;;;;;4974920;28;20118;-66
2021/07/29 09:08:25;;;;;;;;;;;33.70;90.10;;;;;;4974221;28;19919;-66
2021/07/29 09:10:50;;;;;;;;;;;33.70;91.00;;;;;;4975121;28;19914;-66
2021/07/29 09:13:17;;;;;;;;;;;34.60;92.40;;;;;;4975566;28;19941;-66
2021/07/29 09:16:05;;;;;;;;;;;35.90;93.30;;;;;;4975095;28;19910;-66
2021/07/29 09:18:35;;;;;;;;;;;35.50;92.30;;;;;;4974087;28;20012;-66
2021/07/29 09:21:09;;;;;;;;;;;33.80;91.10;;;;;;4974820;28;20257;-66
2021/07/29 09:23:35;;;;;;;;;;;34.10;92.20;;;;;;4975101;28;19906;-67
2021/07/29 09:26:01;;;;;;;;;;;36.10;93.50;;;;;;4974897;28;19920;-67
2021/07/29 09:28:36;;;;;;;;;;;38.00;94.00;;;;;;4974522;28;19925;-67
2021/07/29 09:31:19;;;;;;;;;;;38.80;92.40;;;;;;4974737;28;20042;-67
2021/07/29 09:34:14;;;;;;;;;;;37.80;89.00;;;;;;4974983;28;19922;-67
2021/07/29 09:36:39;;;;;;;;;;;35.90;84.70;;;;;;4953574;28;19914;-67
2021/07/29 09:39:18;;;;;;;;;;;34.20;81.50;;;;;;4974566;28;19910;-66
2021/07/29 09:41:44;;;;;;;;;;;33.10;82.40;;;;;;4974710;28;19961;-66
2021/07/29 09:44:10;;;;;;;;;;;32.70;84.70;;;;;;4974715;28;19953;-66
2021/07/29 09:46:35;;;;;;;;;;;32.40;86.70;;;;;;4974057;28;19926;-66
2021/07/29 09:49:01;;;;;;;;;;;32.30;88.00;;;;;;4973806;28;19914;-66
2021/07/29 09:51:27;;;;;;;;;;;32.90;90.40;;;;;;4974609;28;19910;-66
2021/07/29 09:53:54;;;;;;;;;;;33.80;91.10;;;;;;4974540;28;20005;-66
2021/07/29 09:56:19;;;;;;;;;;;35.00;91.00;;;;;;4974317;28;19914;-66
2021/07/29 09:58:45;;;;;;;;;;;35.70;90.40;;;;;;4973809;28;19921;-66
2021/07/29 10:01:14;;;;;;;;;;;35.80;90.00;;;;;;4956586;28;20004;-66
2021/07/29 10:03:43;;;;;;;;;;;36.30;90.00;;;;;;4974695;28;19942;-66
2021/07/29 10:06:16;;;;;;;;;;;37.10;88.90;;;;;;4974072;28;19910;-67
2021/07/29 10:08:49;;;;;;;;;;;38.10;88.90;;;;;;4973746;28;19921;-67
2021/07/29 10:11:16;;;;;;;;;;;37.80;83.40;;;;;;4973319;28;20225;-66
2021/07/29 10:13:42;;;;;;;;;;;36.30;77.90;;;;;;4973827;28;19917;-66
2021/07/29 10:16:11;;;;;;;;;;;35.70;77.10;;;;;;4973753;28;20071;-66
2021/07/29 10:18:55;;;;;;;;;;;35.30;74.80;;;;;;4973548;28;20394;-66
2021/07/29 10:21:29;;;;;;;;;;;34.50;73.60;;;;;;4974113;28;20002;-66
2021/07/29 10:23:58;;;;;;;;;;;35.10;75.50;;;;;;4974144;28;19942;-66
2021/07/29 10:26:24;;;;;;;;;;;36.80;79.40;;;;;;4973996;28;19914;-66
2021/07/29 10:28:50;;;;;;;;;;;38.70;79.40;;;;;;4995774;23;19932;-63
2021/07/29 10:31:16;;;;;;;;;;;40.20;77.80;;;;;;4973546;28;19996;-63
2021/07/29 10:33:43;;;;;;;;;;;40.60;73.90;;;;;;4973803;28;20009;-61
2021/07/29 10:36:28;;;;;;;;;;;39.60;68.10;;;;;;4973498;28;19968;-63
2021/07/29 10:39:02;;;;;;;;;;;40.20;66.40;;;;;;4972877;28;20359;-62
2021/07/29 10:41:34;;;;;;;;;;;40.50;62.50;;;;;;4973644;28;19949;-62
2021/07/29 10:44:00;;;;;;;;;;;39.90;57.30;;;;;;4973937;28;19910;-63
2021/07/29 10:46:44;;;;;;;;;;;39.60;55.20;;;;;;4972994;28;20045;-63
2021/07/29 10:49:16;;;;;;;;;;;39.70;54.00;;;;;;4972718;28;19952;-63
2021/07/29 10:52:00;;;;;;;;;;;39.10;51.80;;;;;;4973402;28;19953;-63
2021/07/29 10:54:26;;;;;;;;;;;38.90;50.10;;;;;;4973272;28;19957;-63
2021/07/29 10:56:51;;;;;;;;;;;39.20;49.40;;;;;;4973289;28;19915;-63
2021/07/29 10:59:17;;;;;;;;;;;39.80;47.50;;;;;;4972677;28;19964;-63
2021/07/29 11:01:47;;;;;;;;;;;39.80;45.60;;;;;;4973026;28;19910;-63
2021/07/29 11:04:13;;;;;;;;;;;39.70;43.70;;;;;;4973583;28;19932;-62
2021/07/29 11:06:40;;;;;;;;;;;39.40;41.30;;;;;;4973242;28;20008;-63
2021/07/29 11:09:12;;;;;;;;;;;39.40;40.10;;;;;;4972740;28;19956;-65
2021/07/29 11:11:38;;;;;;;;;;;38.90;38.00;;;;;;4972974;28;20279;-64
2021/07/29 11:14:04;;;;;;;;;;;39.20;38.10;;;;;;4973310;28;19996;-64
2021/07/29 11:16:30;;;;;;;;;;;39.60;38.40;;;;;;4972425;28;20009;-63
2021/07/29 11:18:59;;;;;;;;;;;39.50;36.50;;;;;;4971620;28;19910;-64
2021/07/29 11:21:25;;;;;;;;;;;39.40;35.80;;;;;;4972519;28;20001;-64
2021/07/29 11:23:50;;;;;;;;;;;39.70;34.50;;;;;;4972620;28;20037;-64
2021/07/29 11:26:16;;;;;;;;;;;39.40;32.70;;;;;;4972856;28;20005;-64
2021/07/29 11:28:41;;;;;;;;;;;38.60;30.80;;;;;;4972406;28;19922;-67
2021/07/29 11:31:07;;;;;;;;;;;38.40;31.50;;;;;;4972254;28;19974;-64
2021/07/29 11:33:33;;;;;;;;;;;38.40;32.10;;;;;;4972442;28;19965;-64
2021/07/29 11:36:08;;;;;;;;;;;38.40;45.40;;;;;;4972440;28;20014;-65
2021/07/29 11:38:33;;;;;;;;;;;38.00;33.00;;;;;;4971757;28;19910;-64
2021/07/29 11:41:00;;;;;;;;;;;38.00;33.60;;;;;;4972865;28;19961;-64
2021/07/29 11:43:26;;;;;;;;;;;38.10;33.70;;;;;;4972614;28;20075;-64
2021/07/29 11:46:02;;;;;;;;;;;37.90;34.10;;;;;;4972323;28;20334;-64
2021/07/29 11:48:28;;;;;;;;;;;37.90;34.40;;;;;;4972088;28;20012;-63
2021/07/29 11:50:53;;;;;;;;;;;37.60;33.30;;;;;;4972423;28;20065;-64
2021/07/29 11:53:19;;;;;;;;;;;37.10;33.80;;;;;;4973259;28;19918;-64
2021/07/29 11:55:54;;;;;;;;;;;36.50;34.40;;;;;;4972136;28;20339;-64
2021/07/29 11:58:20;;;;;;;;;;;35.70;34.30;;;;;;4971872;28;19953;-63
2021/07/29 12:00:46;;;;;;;;;;;35.30;35.60;;;;;;4972272;28;19914;-63
2021/07/29 12:03:32;;;;;;;;;;;35.10;36.70;;;;;;4972619;28;19947;-63
2021/07/29 12:05:58;;;;;;;;;;;34.70;37.10;;;;;;4971754;28;19910;-64
2021/07/29 12:08:24;;;;;;;;;;;34.70;38.90;;;;;;4971882;28;20408;-64
2021/07/29 12:10:51;;;;;;;;;;;34.80;40.40;;;;;;4972057;28;19910;-64
2021/07/29 12:13:18;;;;;;;;;;;34.60;40.40;;;;;;4972528;28;19996;-63
2021/07/29 12:15:47;;;;;;;;;;;34.00;40.40;;;;;;4971784;28;19914;-63
2021/07/29 12:18:14;;;;;;;;;;;33.40;40.90;;;;;;4971178;28;19981;-64
2021/07/29 12:20:40;;;;;;;;;;;33.00;42.40;;;;;;4971649;28;19929;-64
2021/07/29 12:23:09;;;;;;;;;;;32.70;56.80;;;;;;4971894;28;19910;-63
2021/07/29 12:25:35;;;;;;;;;;;32.60;46.20;;;;;;4971902;28;19915;-64
2021/07/29 12:28:00;;;;;;;;;;;32.40;47.00;;;;;;4970870;28;19933;-64
2021/07/29 12:30:29;;;;;;;;;;;32.00;48.70;;;;;;4974286;28;20153;-64
2021/07/29 12:33:05;;;;;;;;;;;31.60;49.80;;;;;;4976001;28;19914;-64
2021/07/29 12:35:30;;;;;;;;;;;31.30;52.10;;;;;;4975939;28;19910;-64
2021/07/29 12:37:59;;;;;;;;;;;30.90;53.30;;;;;;4975364;28;19914;-64
2021/07/29 12:40:26;;;;;;;;;;;30.80;55.60;;;;;;4975876;28;20001;-64
2021/07/29 12:42:52;;;;;;;;;;;30.70;58.00;;;;;;4976010;28;19910;-63
2021/07/29 12:45:17;;;;;;;;;;;30.60;60.00;;;;;;4975171;28;19928;-63
2021/07/29 12:48:01;;;;;;;;;;;30.30;61.40;;;;;;4975493;28;19917;-63
2021/07/29 12:50:39;;;;;;;;;;;30.20;63.30;;;;;;4975469;28;20085;-64
2021/07/29 12:53:08;;;;;;;;;;;30.00;66.00;;;;;;4975548;28;20278;-63
2021/07/29 12:55:40;;;;;;;;;;;29.90;67.60;;;;;;4975497;28;19910;-63
2021/07/29 12:58:07;;;;;;;;;;;29.60;70.10;;;;;;4974441;28;20335;-63
2021/07/29 13:00:32;;;;;;;;;;;29.50;73.90;;;;;;4976156;28;19921;-63
2021/07/29 13:02:58;;;;;;;;;;;29.50;75.50;;;;;;4976013;28;19914;-62
2021/07/29 13:05:23;;;;;;;;;;;29.40;76.30;;;;;;4976241;28;19949;-63
2021/07/29 13:07:49;;;;;;;;;;;29.20;77.60;;;;;;4974686;28;19949;-63
2021/07/29 13:10:14;;;;;;;;;;;29.10;79.10;;;;;;4975048;28;19911;-63
2021/07/29 13:12:40;;;;;;;;;;;29.00;82.50;;;;;;4975110;28;20437;-64
2021/07/29 13:15:06;;;;;;;;;;;28.90;83.90;;;;;;4974556;28;19910;-62
2021/07/29 13:17:32;;;;;;;;;;;29.00;87.40;;;;;;4974250;28;20334;-63
2021/07/29 13:20:00;;;;;;;;;;;29.00;88.10;;;;;;4975006;28;19918;-63
2021/07/29 13:22:29;;;;;;;;;;;29.10;88.00;;;;;;4974775;28;19911;-63
2021/07/29 13:24:58;;;;;;;;;;;29.40;88.50;;;;;;4974833;28;19914;-63
2021/07/29 13:27:26;;;;;;;;;;;29.30;89.20;;;;;;4974372;28;19941;-64
2021/07/29 13:29:52;;;;;;;;;;;29.10;91.20;;;;;;4974374;28;19930;-64
2021/07/29 13:32:17;;;;;;;;;;;28.80;90.70;;;;;;4974740;28;19917;-64
2021/07/29 13:34:45;;;;;;;;;;;28.70;90.60;;;;;;4974864;28;19943;-64
2021/07/29 13:37:10;;;;;;;;;;;28.60;91.20;;;;;;4974158;28;19921;-64
2021/07/29 13:39:37;;;;;;;;;;;28.80;92.00;;;;;;4974246;28;19914;-63
2021/07/29 13:42:02;;;;;;;;;;;29.00;92.50;;;;;;4974302;28;20001;-64
2021/07/29 13:44:29;;;;;;;;;;;29.20;92.50;;;;;;4974372;28;20009;-64
2021/07/29 13:46:54;;;;;;;;;;;29.20;92.50;;;;;;4974106;28;19910;-63
2021/07/29 13:49:20;;;;;;;;;;;29.00;92.90;;;;;;4973936;28;19916;-64
2021/07/29 13:51:47;;;;;;;;;;;29.00;92.60;;;;;;4974538;28;19952;-64
2021/07/29 13:54:12;;;;;;;;;;;29.00;92.80;;;;;;4974648;28;19931;-64
2021/07/29 13:56:38;;;;;;;;;;;29.00;92.80;;;;;;4974209;28;19994;-64
2021/07/29 13:59:03;;;;;;;;;;;29.00;93.10;;;;;;4974114;28;20263;-64
2021/07/29 14:01:29;;;;;;;;;;;28.70;92.50;;;;;;4973923;28;19953;-64
2021/07/29 14:03:55;;;;;;;;;;;28.60;93.30;;;;;;4974589;28;19910;-63
2021/07/29 14:06:21;;;;;;;;;;;28.60;93.80;;;;;;4974054;28;20074;-64
2021/07/29 14:08:47;;;;;;;;;;;28.50;93.30;;;;;;4973909;28;19961;-63
2021/07/29 14:11:12;;;;;;;;;;;28.30;93.20;;;;;;4956993;28;19931;-64
2021/07/29 14:13:38;;;;;;;;;;;28.30;94.10;;;;;;4974366;28;20260;-64
2021/07/29 14:16:07;;;;;;;;;;;28.30;94.20;;;;;;4974369;28;19910;-63
2021/07/29 14:18:33;;;;;;;;;;;28.40;95.00;;;;;;4973356;28;19914;-64
2021/07/29 14:21:03;;;;;;;;;;;28.40;94.60;;;;;;4973958;28;19917;-63
2021/07/29 14:23:28;;;;;;;;;;;28.20;94.60;;;;;;4974505;28;19914;-63